sensor_id;sensor_type;location;lat;lon;timestamp;P1;durP1;ratioP1;P2;durP2;ratioP2
21814;SDS011;11069;48.988;8.450;2023-09-18T12:51:16;2.22;;;1.20;;
21814;SDS011;11069;48.988;8.450;2023-09-18T12:53:47;2.45;;;1.20;;
21814;SDS011;11069;48.988;8.450;2023-09-18T12:56:13;1.98;;;0.98;;
21814;SDS011;11069;48.988;8.450;2023-09-18T12:58:39;1.05;;;0.95;;
21814;SDS011;11069;48.988;8.450;2023-09-18T13:01:07;1.58;;;0.90;;
21814;SDS011;11069;48.988;8.450;2023-09-18T13:03:34;2.67;;;1.10;;
21814;SDS011;11069;48.988;8.450;2023-09-18T13:06:15;2.50;;;0.85;;
21814;SDS011;11069;48.988;8.450;2023-09-18T13:08:45;1.75;;;1.00;;
21814;SDS011;11069;48.988;8.450;2023-09-18T13:11:12;1.25;;;0.80;;
21814;SDS011;11069;48.988;8.450;2023-09-18T13:13:44;2.72;;;1.00;;
21814;SDS011;11069;48.988;8.450;2023-09-18T13:16:11;4.05;;;1.05;;
21814;SDS011;11069;48.988;8.450;2023-09-18T13:18:40;3.10;;;1.25;;
21814;SDS011;11069;48.988;8.450;2023-09-18T13:21:09;3.13;;;0.80;;
21814;SDS011;11069;48.988;8.450;2023-09-18T13:23:36;1.10;;;0.85;;
21814;SDS011;11069;48.988;8.450;2023-09-18T13:26:03;2.55;;;0.98;;
21814;SDS011;11069;48.988;8.450;2023-09-18T13:28:30;1.23;;;0.70;;
21814;SDS011;11069;48.988;8.450;2023-09-18T13:30:58;3.33;;;1.10;;
21814;SDS011;11069;48.988;8.450;2023-09-18T13:33:25;3.17;;;0.95;;
21814;SDS011;11069;48.988;8.450;2023-09-18T13:35:51;1.48;;;0.80;;
21814;SDS011;11069;48.988;8.450;2023-09-18T13:38:18;3.60;;;1.08;;
21814;SDS011;11069;48.988;8.450;2023-09-18T13:40:47;2.97;;;1.52;;
21814;SDS011;11069;48.988;8.450;2023-09-18T13:43:13;4.55;;;1.23;;
21814;SDS011;11069;48.988;8.450;2023-09-18T13:45:47;6.85;;;1.08;;
21814;SDS011;11069;48.988;8.450;2023-09-18T13:48:12;1.80;;;1.00;;
21814;SDS011;11069;48.988;8.450;2023-09-18T13:50:40;1.45;;;1.00;;
21814;SDS011;11069;48.988;8.450;2023-09-18T13:53:06;2.47;;;0.93;;
21814;SDS011;11069;48.988;8.450;2023-09-18T13:55:32;3.30;;;1.10;;
21814;SDS011;11069;48.988;8.450;2023-09-18T13:57:58;4.10;;;1.23;;
21814;SDS011;11069;48.988;8.450;2023-09-18T14:00:24;3.75;;;1.02;;
21814;SDS011;11069;48.988;8.450;2023-09-18T14:02:51;2.92;;;1.10;;
21814;SDS011;11069;48.988;8.450;2023-09-18T14:05:17;2.33;;;0.88;;
21814;SDS011;11069;48.988;8.450;2023-09-18T14:07:43;3.53;;;1.38;;
21814;SDS011;11069;48.988;8.450;2023-09-18T14:10:09;3.95;;;1.02;;
21814;SDS011;11069;48.988;8.450;2023-09-18T14:12:36;2.60;;;1.23;;
21814;SDS011;11069;48.988;8.450;2023-09-18T14:15:07;1.75;;;1.00;;
21814;SDS011;11069;48.988;8.450;2023-09-18T14:17:34;1.65;;;0.90;;
21814;SDS011;11069;48.988;8.450;2023-09-18T14:20:01;3.13;;;1.10;;
21814;SDS011;11069;48.988;8.450;2023-09-18T14:24:57;2.20;;;1.13;;
21814;SDS011;11069;48.988;8.450;2023-09-18T14:27:22;2.25;;;1.13;;
21814;SDS011;11069;48.988;8.450;2023-09-18T14:29:48;3.47;;;1.08;;
21814;SDS011;11069;48.988;8.450;2023-09-18T14:32:14;2.70;;;1.00;;
21814;SDS011;11069;48.988;8.450;2023-09-18T14:34:40;2.85;;;1.08;;
21814;SDS011;11069;48.988;8.450;2023-09-18T14:37:07;1.63;;;1.00;;
21814;SDS011;11069;48.988;8.450;2023-09-18T14:39:33;1.98;;;1.10;;
21814;SDS011;11069;48.988;8.450;2023-09-18T14:42:00;1.60;;;1.00;;
21814;SDS011;11069;48.988;8.450;2023-09-18T14:44:26;4.88;;;1.05;;
21814;SDS011;11069;48.988;8.450;2023-09-18T14:46:57;1.65;;;1.10;;
21814;SDS011;11069;48.988;8.450;2023-09-18T14:49:24;2.15;;;0.90;;
21814;SDS011;11069;48.988;8.450;2023-09-18T14:51:51;3.35;;;1.13;;
21814;SDS011;11069;48.988;8.450;2023-09-18T14:54:19;2.92;;;1.10;;
21814;SDS011;11069;48.988;8.450;2023-09-18T14:56:45;2.17;;;0.93;;
21814;SDS011;11069;48.988;8.450;2023-09-18T14:59:12;1.65;;;0.95;;
21814;SDS011;11069;48.988;8.450;2023-09-18T15:01:37;2.28;;;0.93;;
21814;SDS011;11069;48.988;8.450;2023-09-18T15:04:03;4.00;;;0.77;;
21814;SDS011;11069;48.988;8.450;2023-09-18T15:06:29;2.83;;;1.20;;
21814;SDS011;11069;48.988;8.450;2023-09-18T15:08:58;1.90;;;1.10;;
21814;SDS011;11069;48.988;8.450;2023-09-18T15:11:24;1.38;;;0.85;;
21814;SDS011;11069;48.988;8.450;2023-09-18T15:13:49;2.08;;;1.00;;
21814;SDS011;11069;48.988;8.450;2023-09-18T15:16:15;3.70;;;1.15;;
21814;SDS011;11069;48.988;8.450;2023-09-18T15:18:41;3.22;;;0.98;;
21814;SDS011;11069;48.988;8.450;2023-09-18T15:21:08;3.35;;;1.05;;
21814;SDS011;11069;48.988;8.450;2023-09-18T15:23:37;1.15;;;0.98;;
21814;SDS011;11069;48.988;8.450;2023-09-18T15:26:04;4.80;;;1.25;;
21814;SDS011;11069;48.988;8.450;2023-09-18T15:28:32;4.20;;;1.42;;
21814;SDS011;11069;48.988;8.450;2023-09-18T15:31:02;3.55;;;1.17;;
21814;SDS011;11069;48.988;8.450;2023-09-18T15:33:36;1.65;;;1.00;;
21814;SDS011;11069;48.988;8.450;2023-09-18T15:36:03;2.13;;;1.00;;
21814;SDS011;11069;48.988;8.450;2023-09-18T15:38:29;2.65;;;1.17;;
21814;SDS011;11069;48.988;8.450;2023-09-18T15:40:55;2.88;;;1.13;;
21814;SDS011;11069;48.988;8.450;2023-09-18T15:43:20;0.82;;;0.80;;
21814;SDS011;11069;48.988;8.450;2023-09-18T15:45:47;1.23;;;0.93;;
21814;SDS011;11069;48.988;8.450;2023-09-18T15:48:12;5.05;;;1.50;;
21814;SDS011;11069;48.988;8.450;2023-09-18T15:50:38;1.98;;;1.15;;
21814;SDS011;11069;48.988;8.450;2023-09-18T15:53:04;5.85;;;1.38;;
21814;SDS011;11069;48.988;8.450;2023-09-18T15:55:30;2.95;;;0.95;;
21814;SDS011;11069;48.988;8.450;2023-09-18T15:57:59;3.78;;;1.08;;
21814;SDS011;11069;48.988;8.450;2023-09-18T16:00:24;3.35;;;1.20;;
21814;SDS011;11069;48.988;8.450;2023-09-18T16:02:50;4.95;;;1.30;;
21814;SDS011;11069;48.988;8.450;2023-09-18T16:05:20;2.15;;;1.00;;
21814;SDS011;11069;48.988;8.450;2023-09-18T16:07:51;2.30;;;0.93;;
21814;SDS011;11069;48.988;8.450;2023-09-18T16:10:23;2.22;;;1.10;;
21814;SDS011;11069;48.988;8.450;2023-09-18T16:12:48;1.83;;;1.08;;
21814;SDS011;11069;48.988;8.450;2023-09-18T16:15:14;2.33;;;1.10;;
21814;SDS011;11069;48.988;8.450;2023-09-18T16:17:40;2.55;;;1.00;;
21814;SDS011;11069;48.988;8.450;2023-09-18T16:20:08;4.28;;;1.77;;
21814;SDS011;11069;48.988;8.450;2023-09-18T16:22:35;1.92;;;1.00;;
21814;SDS011;11069;48.988;8.450;2023-09-18T16:25:07;2.05;;;1.30;;
21814;SDS011;11069;48.988;8.450;2023-09-18T16:27:33;2.05;;;1.25;;
21814;SDS011;11069;48.988;8.450;2023-09-18T16:29:59;4.47;;;1.10;;
21814;SDS011;11069;48.988;8.450;2023-09-18T16:32:28;3.90;;;1.10;;
21814;SDS011;11069;48.988;8.450;2023-09-18T16:34:53;1.50;;;0.98;;
21814;SDS011;11069;48.988;8.450;2023-09-18T16:37:22;2.92;;;1.00;;
21814;SDS011;11069;48.988;8.450;2023-09-18T16:39:48;1.80;;;1.00;;
21814;SDS011;11069;48.988;8.450;2023-09-18T16:42:19;1.85;;;1.00;;
21814;SDS011;11069;48.988;8.450;2023-09-18T16:44:45;1.98;;;1.10;;
21814;SDS011;11069;48.988;8.450;2023-09-18T16:47:11;1.88;;;0.93;;
21814;SDS011;11069;48.988;8.450;2023-09-18T16:49:37;2.90;;;1.13;;
21814;SDS011;11069;48.988;8.450;2023-09-18T16:52:03;3.35;;;1.20;;
21814;SDS011;11069;48.988;8.450;2023-09-18T16:54:29;1.50;;;1.10;;
21814;SDS011;11069;48.988;8.450;2023-09-18T16:56:56;2.65;;;1.10;;
21814;SDS011;11069;48.988;8.450;2023-09-18T16:59:22;1.75;;;1.10;;
21814;SDS011;11069;48.988;8.450;2023-09-18T17:01:55;2.95;;;1.40;;
21814;SDS011;11069;48.988;8.450;2023-09-18T17:04:25;1.60;;;1.10;;
21814;SDS011;11069;48.988;8.450;2023-09-18T17:06:51;2.10;;;1.02;;
21814;SDS011;11069;48.988;8.450;2023-09-18T17:09:17;2.70;;;1.10;;
21814;SDS011;11069;48.988;8.450;2023-09-18T17:11:43;2.42;;;1.23;;
21814;SDS011;11069;48.988;8.450;2023-09-18T17:14:08;3.65;;;1.35;;
21814;SDS011;11069;48.988;8.450;2023-09-18T17:16:34;3.45;;;1.42;;
21814;SDS011;11069;48.988;8.450;2023-09-18T17:19:01;4.03;;;1.65;;
21814;SDS011;11069;48.988;8.450;2023-09-18T17:21:29;3.78;;;1.33;;
21814;SDS011;11069;48.988;8.450;2023-09-18T17:24:00;5.50;;;1.90;;
21814;SDS011;11069;48.988;8.450;2023-09-18T17:26:26;6.30;;;1.50;;
21814;SDS011;11069;48.988;8.450;2023-09-18T17:28:52;4.18;;;1.23;;
21814;SDS011;11069;48.988;8.450;2023-09-18T17:31:18;4.13;;;1.50;;
21814;SDS011;11069;48.988;8.450;2023-09-18T17:33:44;3.60;;;1.50;;
21814;SDS011;11069;48.988;8.450;2023-09-18T17:36:10;4.25;;;1.60;;
21814;SDS011;11069;48.988;8.450;2023-09-18T17:38:36;2.80;;;1.20;;
21814;SDS011;11069;48.988;8.450;2023-09-18T17:41:02;2.42;;;1.30;;
21814;SDS011;11069;48.988;8.450;2023-09-18T17:43:31;4.47;;;1.80;;
21814;SDS011;11069;48.988;8.450;2023-09-18T17:45:57;3.15;;;1.75;;
21814;SDS011;11069;48.988;8.450;2023-09-18T17:48:23;4.18;;;2.00;;
21814;SDS011;11069;48.988;8.450;2023-09-18T17:50:49;5.75;;;1.92;;
21814;SDS011;11069;48.988;8.450;2023-09-18T17:53:14;2.10;;;1.17;;
21814;SDS011;11069;48.988;8.450;2023-09-18T17:55:40;2.70;;;1.42;;
21814;SDS011;11069;48.988;8.450;2023-09-18T17:58:06;1.95;;;1.20;;
21814;SDS011;11069;48.988;8.450;2023-09-18T18:00:32;2.83;;;1.45;;
21814;SDS011;11069;48.988;8.450;2023-09-18T18:02:58;4.43;;;1.60;;
21814;SDS011;11069;48.988;8.450;2023-09-18T18:05:23;2.60;;;1.35;;
21814;SDS011;11069;48.988;8.450;2023-09-18T18:07:49;2.70;;;1.20;;
21814;SDS011;11069;48.988;8.450;2023-09-18T18:10:15;2.30;;;1.58;;
21814;SDS011;11069;48.988;8.450;2023-09-18T18:12:40;3.30;;;1.30;;
21814;SDS011;11069;48.988;8.450;2023-09-18T18:15:06;2.00;;;1.45;;
21814;SDS011;11069;48.988;8.450;2023-09-18T18:17:37;1.85;;;1.30;;
21814;SDS011;11069;48.988;8.450;2023-09-18T18:20:03;2.75;;;1.48;;
21814;SDS011;11069;48.988;8.450;2023-09-18T18:22:31;4.63;;;1.70;;
21814;SDS011;11069;48.988;8.450;2023-09-18T18:24:57;1.88;;;1.40;;
21814;SDS011;11069;48.988;8.450;2023-09-18T18:27:23;2.38;;;1.38;;
21814;SDS011;11069;48.988;8.450;2023-09-18T18:29:48;4.28;;;1.50;;
21814;SDS011;11069;48.988;8.450;2023-09-18T18:32:14;2.50;;;1.33;;
21814;SDS011;11069;48.988;8.450;2023-09-18T18:34:39;2.03;;;1.63;;
21814;SDS011;11069;48.988;8.450;2023-09-18T18:37:06;3.13;;;1.45;;
21814;SDS011;11069;48.988;8.450;2023-09-18T18:39:32;3.30;;;1.40;;
21814;SDS011;11069;48.988;8.450;2023-09-18T18:41:58;1.58;;;1.10;;
21814;SDS011;11069;48.988;8.450;2023-09-18T18:44:24;3.33;;;1.75;;
21814;SDS011;11069;48.988;8.450;2023-09-18T18:46:49;4.10;;;1.50;;
21814;SDS011;11069;48.988;8.450;2023-09-18T18:49:16;2.17;;;1.30;;
21814;SDS011;11069;48.988;8.450;2023-09-18T18:51:41;1.98;;;1.20;;
21814;SDS011;11069;48.988;8.450;2023-09-18T18:54:08;4.85;;;1.85;;
21814;SDS011;11069;48.988;8.450;2023-09-18T18:56:34;3.47;;;1.63;;
21814;SDS011;11069;48.988;8.450;2023-09-18T18:59:00;3.17;;;1.40;;
21814;SDS011;11069;48.988;8.450;2023-09-18T19:01:28;3.25;;;1.60;;
21814;SDS011;11069;48.988;8.450;2023-09-18T19:03:54;2.45;;;1.60;;
21814;SDS011;11069;48.988;8.450;2023-09-18T19:06:20;3.83;;;1.67;;
21814;SDS011;11069;48.988;8.450;2023-09-18T19:08:47;2.90;;;1.40;;
21814;SDS011;11069;48.988;8.450;2023-09-18T19:11:13;1.95;;;1.60;;
21814;SDS011;11069;48.988;8.450;2023-09-18T19:13:40;4.20;;;1.98;;
21814;SDS011;11069;48.988;8.450;2023-09-18T19:16:08;3.70;;;1.58;;
21814;SDS011;11069;48.988;8.450;2023-09-18T19:18:37;2.17;;;1.70;;
21814;SDS011;11069;48.988;8.450;2023-09-18T19:21:04;2.22;;;1.67;;
21814;SDS011;11069;48.988;8.450;2023-09-18T19:23:32;2.72;;;1.85;;
21814;SDS011;11069;48.988;8.450;2023-09-18T19:26:02;1.88;;;1.65;;
21814;SDS011;11069;48.988;8.450;2023-09-18T19:28:36;3.08;;;1.50;;
21814;SDS011;11069;48.988;8.450;2023-09-18T19:31:02;2.72;;;1.88;;
21814;SDS011;11069;48.988;8.450;2023-09-18T19:33:31;2.47;;;1.50;;
21814;SDS011;11069;48.988;8.450;2023-09-18T19:36:02;3.28;;;1.80;;
21814;SDS011;11069;48.988;8.450;2023-09-18T19:38:31;1.67;;;1.42;;
21814;SDS011;11069;48.988;8.450;2023-09-18T19:40:57;3.28;;;1.98;;
21814;SDS011;11069;48.988;8.450;2023-09-18T19:43:23;1.83;;;1.73;;
21814;SDS011;11069;48.988;8.450;2023-09-18T19:45:49;2.97;;;2.15;;
21814;SDS011;11069;48.988;8.450;2023-09-18T19:48:17;2.53;;;1.80;;
21814;SDS011;11069;48.988;8.450;2023-09-18T19:50:43;2.72;;;1.67;;
21814;SDS011;11069;48.988;8.450;2023-09-18T19:53:09;2.53;;;1.77;;
21814;SDS011;11069;48.988;8.450;2023-09-18T19:55:35;1.67;;;1.50;;
21814;SDS011;11069;48.988;8.450;2023-09-18T19:58:01;3.50;;;1.50;;
21814;SDS011;11069;48.988;8.450;2023-09-18T20:00:28;2.95;;;1.90;;
21814;SDS011;11069;48.988;8.450;2023-09-18T20:02:54;2.47;;;1.58;;
21814;SDS011;11069;48.988;8.450;2023-09-18T20:05:23;1.40;;;1.30;;
21814;SDS011;11069;48.988;8.450;2023-09-18T20:07:49;3.60;;;1.65;;
21814;SDS011;11069;48.988;8.450;2023-09-18T20:10:15;2.30;;;1.30;;
21814;SDS011;11069;48.988;8.450;2023-09-18T20:12:51;1.40;;;1.30;;
21814;SDS011;11069;48.988;8.450;2023-09-18T20:15:18;1.98;;;1.50;;
21814;SDS011;11069;48.988;8.450;2023-09-18T20:17:44;2.60;;;1.33;;
21814;SDS011;11069;48.988;8.450;2023-09-18T20:20:14;2.95;;;1.80;;
21814;SDS011;11069;48.988;8.450;2023-09-18T20:22:40;2.03;;;1.48;;
21814;SDS011;11069;48.988;8.450;2023-09-18T20:25:06;2.38;;;1.50;;
21814;SDS011;11069;48.988;8.450;2023-09-18T20:27:34;2.25;;;1.52;;
21814;SDS011;11069;48.988;8.450;2023-09-18T20:30:05;1.53;;;1.43;;
21814;SDS011;11069;48.988;8.450;2023-09-18T20:32:31;3.80;;;1.60;;
21814;SDS011;11069;48.988;8.450;2023-09-18T20:35:00;1.75;;;1.50;;
21814;SDS011;11069;48.988;8.450;2023-09-18T20:37:25;3.45;;;1.52;;
21814;SDS011;11069;48.988;8.450;2023-09-18T20:39:54;2.75;;;1.55;;
21814;SDS011;11069;48.988;8.450;2023-09-18T20:42:20;2.08;;;1.85;;
21814;SDS011;11069;48.988;8.450;2023-09-18T20:44:46;3.15;;;1.88;;
21814;SDS011;11069;48.988;8.450;2023-09-18T20:47:15;2.20;;;1.50;;
21814;SDS011;11069;48.988;8.450;2023-09-18T20:49:42;1.90;;;1.80;;
21814;SDS011;11069;48.988;8.450;2023-09-18T20:52:07;2.58;;;1.90;;
21814;SDS011;11069;48.988;8.450;2023-09-18T20:54:33;2.13;;;1.60;;
21814;SDS011;11069;48.988;8.450;2023-09-18T20:56:59;2.80;;;1.90;;
21814;SDS011;11069;48.988;8.450;2023-09-18T20:59:25;5.72;;;1.80;;
21814;SDS011;11069;48.988;8.450;2023-09-18T21:01:52;1.98;;;1.67;;
21814;SDS011;11069;48.988;8.450;2023-09-18T21:04:18;2.45;;;1.48;;
21814;SDS011;11069;48.988;8.450;2023-09-18T21:06:44;2.72;;;1.58;;
21814;SDS011;11069;48.988;8.450;2023-09-18T21:09:09;3.80;;;2.03;;
21814;SDS011;11069;48.988;8.450;2023-09-18T21:11:36;6.35;;;1.90;;
21814;SDS011;11069;48.988;8.450;2023-09-18T21:14:06;3.53;;;2.45;;
21814;SDS011;11069;48.988;8.450;2023-09-18T21:16:35;3.20;;;2.15;;
21814;SDS011;11069;48.988;8.450;2023-09-18T21:19:01;5.93;;;2.40;;
21814;SDS011;11069;48.988;8.450;2023-09-18T21:21:28;2.80;;;2.10;;
21814;SDS011;11069;48.988;8.450;2023-09-18T21:23:54;3.45;;;2.33;;
21814;SDS011;11069;48.988;8.450;2023-09-18T21:26:19;3.28;;;2.08;;
21814;SDS011;11069;48.988;8.450;2023-09-18T21:28:45;3.47;;;2.45;;
21814;SDS011;11069;48.988;8.450;2023-09-18T21:31:14;2.55;;;2.35;;
21814;SDS011;11069;48.988;8.450;2023-09-18T21:33:46;2.67;;;2.25;;
21814;SDS011;11069;48.988;8.450;2023-09-18T21:36:14;4.05;;;2.20;;
21814;SDS011;11069;48.988;8.450;2023-09-18T21:38:42;6.20;;;2.22;;
21814;SDS011;11069;48.988;8.450;2023-09-18T21:41:08;4.22;;;2.20;;
21814;SDS011;11069;48.988;8.450;2023-09-18T21:43:34;2.58;;;2.30;;
21814;SDS011;11069;48.988;8.450;2023-09-18T21:46:00;2.83;;;2.15;;
21814;SDS011;11069;48.988;8.450;2023-09-18T21:48:26;5.18;;;2.20;;
21814;SDS011;11069;48.988;8.450;2023-09-18T21:50:52;2.63;;;2.00;;
21814;SDS011;11069;48.988;8.450;2023-09-18T21:53:18;5.53;;;2.05;;
21814;SDS011;11069;48.988;8.450;2023-09-18T21:55:44;3.00;;;2.03;;
21814;SDS011;11069;48.988;8.450;2023-09-18T21:58:10;2.17;;;1.95;;
21814;SDS011;11069;48.988;8.450;2023-09-18T22:00:36;2.53;;;2.30;;
21814;SDS011;11069;48.988;8.450;2023-09-18T22:03:08;4.40;;;1.90;;
21814;SDS011;11069;48.988;8.450;2023-09-18T22:05:38;3.80;;;2.08;;
21814;SDS011;11069;48.988;8.450;2023-09-18T22:08:04;3.25;;;2.38;;
21814;SDS011;11069;48.988;8.450;2023-09-18T22:10:31;2.10;;;1.90;;
21814;SDS011;11069;48.988;8.450;2023-09-18T22:12:57;3.00;;;1.92;;
21814;SDS011;11069;48.988;8.450;2023-09-18T22:15:23;3.38;;;1.85;;
21814;SDS011;11069;48.988;8.450;2023-09-18T22:17:49;3.35;;;1.90;;
21814;SDS011;11069;48.988;8.450;2023-09-18T22:20:14;2.65;;;2.00;;
21814;SDS011;11069;48.988;8.450;2023-09-18T22:22:40;3.13;;;1.70;;
21814;SDS011;11069;48.988;8.450;2023-09-18T22:25:08;3.30;;;2.03;;
21814;SDS011;11069;48.988;8.450;2023-09-18T22:27:34;2.05;;;1.67;;
21814;SDS011;11069;48.988;8.450;2023-09-18T22:30:00;2.70;;;2.00;;
21814;SDS011;11069;48.988;8.450;2023-09-18T22:32:25;2.53;;;1.77;;
21814;SDS011;11069;48.988;8.450;2023-09-18T22:34:51;3.25;;;1.73;;
21814;SDS011;11069;48.988;8.450;2023-09-18T22:37:20;3.45;;;1.80;;
21814;SDS011;11069;48.988;8.450;2023-09-18T22:54:45;4.28;;;1.55;;
21814;SDS011;11069;48.988;8.450;2023-09-18T22:57:12;2.53;;;1.85;;
21814;SDS011;11069;48.988;8.450;2023-09-18T22:59:39;3.55;;;1.70;;
21814;SDS011;11069;48.988;8.450;2023-09-18T23:02:05;3.83;;;2.00;;
21814;SDS011;11069;48.988;8.450;2023-09-18T23:04:32;2.20;;;1.80;;
21814;SDS011;11069;48.988;8.450;2023-09-18T23:07:01;3.38;;;1.85;;
21814;SDS011;11069;48.988;8.450;2023-09-18T23:09:30;2.55;;;2.10;;
21814;SDS011;11069;48.988;8.450;2023-09-18T23:11:56;5.78;;;2.13;;
21814;SDS011;11069;48.988;8.450;2023-09-18T23:14:22;1.80;;;1.58;;
21814;SDS011;11069;48.988;8.450;2023-09-18T23:16:48;4.55;;;2.22;;
21814;SDS011;11069;48.988;8.450;2023-09-18T23:19:14;3.65;;;1.85;;
21814;SDS011;11069;48.988;8.450;2023-09-18T23:21:40;3.67;;;1.77;;
21814;SDS011;11069;48.988;8.450;2023-09-18T23:24:06;2.08;;;1.80;;
21814;SDS011;11069;48.988;8.450;2023-09-18T23:26:36;2.38;;;1.70;;
21814;SDS011;11069;48.988;8.450;2023-09-18T23:29:04;2.00;;;1.70;;
21814;SDS011;11069;48.988;8.450;2023-09-18T23:31:36;5.13;;;2.33;;
21814;SDS011;11069;48.988;8.450;2023-09-18T23:34:02;3.70;;;2.10;;
21814;SDS011;11069;48.988;8.450;2023-09-18T23:36:31;5.80;;;2.10;;
21814;SDS011;11069;48.988;8.450;2023-09-18T23:38:57;2.58;;;1.77;;
21814;SDS011;11069;48.988;8.450;2023-09-18T23:41:32;3.67;;;2.03;;
21814;SDS011;11069;48.988;8.450;2023-09-18T23:43:59;4.38;;;1.80;;
21814;SDS011;11069;48.988;8.450;2023-09-18T23:46:24;2.67;;;2.00;;
21814;SDS011;11069;48.988;8.450;2023-09-18T23:48:51;3.55;;;1.90;;
21814;SDS011;11069;48.988;8.450;2023-09-18T23:51:17;3.83;;;1.75;;
21814;SDS011;11069;48.988;8.450;2023-09-18T23:53:45;1.90;;;1.70;;
21814;SDS011;11069;48.988;8.450;2023-09-18T23:56:10;4.10;;;1.80;;
21814;SDS011;11069;48.988;8.450;2023-09-18T23:58:38;2.63;;;1.70;;
